Time;durP1;ratioP1;P1;durP2;ratioP2;P2;SDS_P1;SDS_P2;PMS_P1;PMS_P2;Temp;Humidity;BMP_temperature;BMP_pressure;BME280_temperature;BME280_humidity;BME280_pressure;Samples;Min_cycle;Max_cycle;Signal;HPM_P1;HPM_P2
2023/05/22 00:01:25;;;;;;;0.10;0.10;;;;;;;11.99;72.99;100418.09;5071689;28;20047;-72
2023/05/22 00:03:53;;;;;;;0.10;0.10;;;;;;;11.99;73.13;100423.59;5090720;28;20111;-72
2023/05/22 00:06:20;;;;;;;0.10;0.10;;;;;;;12.00;72.73;100416.19;5090241;28;20158;-72
2023/05/22 00:08:47;;;;;;;0.10;0.10;;;;;;;12.07;72.67;100405.81;5089243;28;20532;-72
2023/05/22 00:11:13;;;;;;;0.10;0.10;;;;;;;12.15;71.74;100408.06;5053132;28;20147;-72
2023/05/22 00:13:40;;;;;;;0.10;0.10;;;;;;;12.26;71.24;100410.84;5070063;28;20078;-71
2023/05/22 00:16:06;;;;;;;0.10;0.10;;;;;;;12.33;70.71;100416.88;5070344;28;20135;-72
2023/05/22 00:18:32;;;;;;;0.10;0.10;;;;;;;12.40;70.55;100406.44;5071418;28;20584;-73
2023/05/22 00:21:00;;;;;;;0.10;0.10;;;;;;;12.51;70.07;100403.72;5073769;28;20427;-71
2023/05/22 00:23:29;;;;;;;0.10;0.10;;;;;;;12.56;69.57;100409.19;5090831;28;20055;-71
2023/05/22 00:25:55;;;;;;;0.10;0.10;;;;;;;12.53;69.39;100412.50;5071276;28;20040;-72
2023/05/22 00:28:21;;;;;;;0.20;0.10;;;;;;;12.46;69.78;100416.34;5088319;28;20044;-71
2023/05/22 00:30:48;;;;;;;0.10;0.10;;;;;;;12.38;70.40;100422.34;5087390;28;20143;-71
2023/05/22 00:33:14;;;;;;;0.20;0.20;;;;;;;12.28;70.52;100409.44;5071357;28;20503;-70
2023/05/22 00:35:40;;;;;;;0.17;0.17;;;;;;;12.24;70.44;100408.34;5087020;28;20133;-69
2023/05/22 00:38:08;;;;;;;0.10;0.10;;;;;;;12.17;70.90;100403.13;5086003;28;20074;-70
2023/05/22 00:40:35;;;;;;;0.10;0.10;;;;;;;12.08;71.32;100399.25;5068794;28;20515;-70
2023/05/22 00:43:07;;;;;;;0.10;0.10;;;;;;;12.01;71.33;100395.94;5066362;28;20044;-69
2023/05/22 00:45:33;;;;;;;0.10;0.10;;;;;;;11.94;71.36;100396.19;5087781;28;20134;-69
2023/05/22 00:47:59;;;;;;;0.10;0.10;;;;;;;11.92;71.12;100406.59;5086937;28;20510;-70
2023/05/22 00:50:25;;;;;;;0.40;0.20;;;;;;;11.86;70.94;100400.25;5070923;28;20070;-70
2023/05/22 00:52:52;;;;;;;0.15;0.15;;;;;;;11.83;71.08;100395.31;5068787;28;20051;-71
2023/05/22 00:55:20;;;;;;;0.13;0.13;;;;;;;11.82;71.39;100398.31;5051012;28;20040;-72
2023/05/22 00:57:47;;;;;;;0.10;0.10;;;;;;;11.85;71.42;100403.25;5085391;28;20056;-71
2023/05/22 01:00:15;;;;;;;0.10;0.10;;;;;;;11.86;70.83;100403.00;5088737;28;20055;-72
2023/05/22 01:02:41;;;;;;;0.20;0.20;;;;;;;11.83;70.70;100403.56;5067943;28;20105;-72
2023/05/22 01:05:11;;;;;;;0.22;0.20;;;;;;;11.78;70.67;100398.88;5086459;28;20046;-72
2023/05/22 01:07:38;;;;;;;0.15;0.10;;;;;;;11.70;70.80;100393.09;5050199;28;20047;-72
2023/05/22 01:10:06;;;;;;;0.20;0.20;;;;;;;11.70;71.54;100413.06;5088514;28;20047;-72
2023/05/22 01:12:41;;;;;;;0.20;0.20;;;;;;;11.65;71.93;100410.31;5088320;28;20044;-72
2023/05/22 01:15:16;;;;;;;0.10;0.10;;;;;;;11.60;72.34;100405.63;5069470;28;20075;-72
2023/05/22 01:17:51;;;;;;;0.10;0.10;;;;;;;11.59;72.75;100403.19;5050063;28;20069;-71
2023/05/22 01:20:26;;;;;;;0.10;0.10;;;;;;;11.58;72.96;100399.59;5052729;28;20044;-72
2023/05/22 01:23:26;;;;;;;0.10;0.10;;;;;;;11.60;72.75;100400.16;5068234;28;20048;-72
2023/05/22 01:26:02;;;;;;;0.20;0.20;;;;;;;11.61;72.43;100404.53;5078684;28;20136;-73
2023/05/22 01:29:06;;;;;;;0.20;0.20;;;;;;;11.60;72.03;100404.81;5051378;28;20036;-72
2023/05/22 01:31:38;;;;;;;0.20;0.13;;;;;;;11.58;71.66;100410.56;5068101;28;20055;-72
2023/05/22 01:34:09;;;;;;;0.20;0.20;;;;;;;11.59;70.47;100405.91;5086813;28;20052;-72
2023/05/22 01:36:37;;;;;;;0.10;0.10;;;;;;;11.59;70.68;100408.66;5086002;28;20076;-72
2023/05/22 01:39:05;;;;;;;0.10;0.10;;;;;;;11.59;70.01;100412.19;5068437;28;20078;-71
2023/05/22 01:41:32;;;;;;;0.32;0.20;;;;;;;11.58;70.22;100409.75;5067243;28;20585;-72
2023/05/22 01:43:59;;;;;;;0.10;0.10;;;;;;;11.57;70.16;100411.66;5084997;28;20058;-71
2023/05/22 01:46:30;;;;;;;0.20;0.20;;;;;;;11.58;69.96;100412.50;5086532;28;20047;-72
2023/05/22 01:48:58;;;;;;;0.10;0.10;;;;;;;11.59;70.66;100408.66;5048760;28;20069;-72
2023/05/22 01:51:32;;;;;;;0.25;0.20;;;;;;;11.60;70.62;100416.59;5067027;28;20055;-72
2023/05/22 01:54:04;;;;;;;0.20;0.20;;;;;;;11.61;70.95;100417.44;5068062;28;20060;-72
2023/05/22 01:56:40;;;;;;;0.40;0.20;;;;;;;11.56;71.40;100420.97;5053240;28;20614;-72
2023/05/22 01:59:13;;;;;;;0.17;0.17;;;;;;;11.47;71.80;100419.81;5068651;28;20060;-71
2023/05/22 02:01:42;;;;;;;0.15;0.15;;;;;;;11.41;72.10;100418.97;5036196;28;20659;-72
2023/05/22 02:04:11;;;;;;;0.40;0.20;;;;;;;11.34;72.27;100421.94;5069863;28;20048;-72
2023/05/22 02:06:38;;;;;;;0.15;0.15;;;;;;;11.27;72.42;100426.81;5084859;28;20044;-72
2023/05/22 02:09:05;;;;;;;;;;;;;;;11.27;72.74;100432.28;5068064;28;20052;-72
2023/05/22 02:11:32;;;;;;;0.32;0.25;;;;;;;11.23;72.44;100428.44;5086032;28;19924;-72
2023/05/22 02:14:00;;;;;;;0.10;0.10;;;;;;;11.21;72.56;100425.94;5070011;28;20143;-72
2023/05/22 02:16:29;;;;;;;0.10;0.10;;;;;;;11.19;72.59;100436.34;5084592;28;20062;-72
2023/05/22 02:19:04;;;;;;;0.10;0.10;;;;;;;11.18;72.21;100428.41;5067988;28;20134;-72
2023/05/22 02:21:52;;;;;;;0.10;0.10;;;;;;;11.17;72.66;100430.31;5055930;28;20140;-71
2023/05/22 02:24:18;;;;;;;;;;;;;;;11.17;72.89;100437.72;5087212;28;20423;-69
2023/05/22 02:26:44;;;;;;;0.10;0.10;;;;;;;11.17;72.42;100446.72;5068884;28;19924;-70
2023/05/22 02:29:12;;;;;;;0.10;0.10;;;;;;;11.18;72.56;100447.56;5066827;28;20514;-70
2023/05/22 02:31:38;;;;;;;0.10;0.10;;;;;;;11.23;72.28;100449.50;5063287;28;20060;-69
2023/05/22 02:34:05;;;;;;;0.10;0.10;;;;;;;11.26;72.18;100460.75;5047288;28;20514;-70
2023/05/22 02:36:32;;;;;;;0.15;0.10;;;;;;;11.29;71.65;100462.97;5062843;28;20051;-69
2023/05/22 02:39:00;;;;;;;0.05;0.05;;;;;;;11.33;71.04;100453.16;5062929;28;20464;-69
2023/05/22 02:41:26;;;;;;;0.10;0.10;;;;;;;11.39;70.74;100450.44;5065389;28;20465;-72
2023/05/22 02:43:52;;;;;;;0.10;0.10;;;;;;;11.43;70.31;100444.19;5062946;28;20055;-72
2023/05/22 02:46:18;;;;;;;0.43;0.20;;;;;;;11.54;69.92;100449.69;5062716;28;20056;-69
2023/05/22 02:48:44;;;;;;;0.10;0.10;;;;;;;11.61;69.85;100447.56;5063929;28;20530;-69
2023/05/22 02:51:11;;;;;;;0.40;0.13;;;;;;;11.70;69.64;100459.63;5045141;28;20143;-70
2023/05/22 02:53:39;;;;;;;0.20;0.20;;;;;;;11.75;69.20;100454.19;5063869;28;20044;-69
2023/05/22 02:56:09;;;;;;;0.10;0.10;;;;;;;11.77;68.56;100456.66;5063863;28;20044;-70
2023/05/22 02:58:35;;;;;;;0.20;0.20;;;;;;;11.83;68.55;100460.25;5064321;28;20074;-69
2023/05/22 03:01:02;;;;;;;0.10;0.10;;;;;;;11.91;68.28;100448.78;5064699;28;20090;-70
2023/05/22 03:03:30;;;;;;;0.20;0.20;;;;;;;11.98;67.99;100449.34;5065422;28;20503;-69
2023/05/22 03:05:57;;;;;;;0.20;0.20;;;;;;;12.08;67.73;100451.31;5065358;28;20299;-69
2023/05/22 03:08:23;;;;;;;0.20;0.20;;;;;;;12.14;67.28;100444.78;5048650;28;20055;-69
2023/05/22 03:10:50;;;;;;;0.20;0.20;;;;;;;12.14;67.27;100441.22;5048736;28;20052;-70
2023/05/22 03:13:17;;;;;;;0.30;0.30;;;;;;;12.19;67.54;100442.06;5064588;28;20045;-70
2023/05/22 03:15:43;;;;;;;0.10;0.10;;;;;;;12.26;67.46;100447.28;5061737;28;20060;-70
2023/05/22 03:18:13;;;;;;;0.22;0.20;;;;;;;12.35;66.82;100444.81;5062471;28;20135;-70
2023/05/22 03:20:40;;;;;;;0.20;0.20;;;;;;;12.38;66.63;100444.28;5063256;28;20078;-70
2023/05/22 03:23:06;;;;;;;0.20;0.20;;;;;;;12.45;65.99;100450.34;5064985;28;20128;-69
2023/05/22 03:25:33;;;;;;;0.20;0.20;;;;;;;12.45;66.07;100444.03;5065363;28;20527;-69
2023/05/22 03:28:00;;;;;;;0.10;0.10;;;;;;;12.55;65.77;100449.53;5064027;28;20123;-69
2023/05/22 03:30:31;;;;;;;0.20;0.20;;;;;;;12.69;65.37;100459.97;5062164;28;20052;-69
2023/05/22 03:33:20;;;;;;;0.20;0.20;;;;;;;12.74;65.15;100451.75;5063349;28;20045;-69
2023/05/22 03:35:46;;;;;;;0.22;0.22;;;;;;;12.80;65.20;100447.09;5047995;28;20138;-69
2023/05/22 03:38:13;;;;;;;0.20;0.20;;;;;;;12.83;65.11;100450.09;5065349;28;20538;-69
2023/05/22 03:40:39;;;;;;;0.10;0.10;;;;;;;12.83;65.52;100452.00;5063048;28;20607;-69
2023/05/22 03:43:05;;;;;;;0.10;0.10;;;;;;;12.82;65.29;100456.69;5064547;28;20068;-69
2023/05/22 03:45:33;;;;;;;0.20;0.20;;;;;;;12.83;65.67;100455.59;5062870;28;20044;-72
2023/05/22 03:47:59;;;;;;;0.20;0.20;;;;;;;12.87;65.68;100455.84;5062045;28;20237;-72
2023/05/22 03:50:25;;;;;;;0.10;0.10;;;;;;;12.94;65.63;100450.94;5063920;28;20505;-72
2023/05/22 03:52:52;;;;;;;0.10;0.10;;;;;;;13.00;65.25;100451.75;5046707;28;20078;-72
2023/05/22 03:55:18;;;;;;;0.10;0.10;;;;;;;12.96;65.74;100454.22;5064970;28;20055;-72
2023/05/22 03:57:44;;;;;;;0.10;0.10;;;;;;;12.99;65.67;100458.34;5065047;28;20455;-72
2023/05/22 04:00:12;;;;;;;0.13;0.13;;;;;;;12.97;66.12;100469.59;5063111;28;20703;-72
2023/05/22 04:02:43;;;;;;;0.10;0.10;;;;;;;12.97;66.12;100458.59;5046336;28;20589;-72
2023/05/22 04:05:11;;;;;;;0.10;0.10;;;;;;;12.99;66.33;100456.41;5062374;28;20092;-72
2023/05/22 04:07:37;;;;;;;0.20;0.20;;;;;;;12.94;66.44;100459.16;5065143;28;20056;-72
2023/05/22 04:10:04;;;;;;;0.10;0.10;;;;;;;12.85;66.92;100458.88;5063975;28;20127;-72
2023/05/22 04:12:32;;;;;;;0.20;0.20;;;;;;;12.80;67.71;100464.38;5070150;28;20049;-72
2023/05/22 04:14:58;;;;;;;0.10;0.10;;;;;;;12.79;68.07;100453.66;5083363;28;20040;-71
2023/05/22 04:17:25;;;;;;;0.10;0.10;;;;;;;12.87;68.34;100455.84;5065796;28;20523;-72
2023/05/22 04:19:53;;;;;;;0.15;0.15;;;;;;;12.90;68.41;100458.88;5066151;28;20056;-72
2023/05/22 04:22:18;;;;;;;;;;;;;;;13.00;68.33;100460.78;5070363;28;20055;-72
2023/05/22 04:24:47;;;;;;;0.20;0.20;;;;;;;13.11;67.86;100455.31;5068530;28;20346;-72
2023/05/22 04:27:14;;;;;;;0.10;0.10;;;;;;;13.17;68.18;100448.69;5069944;28;20139;-73
2023/05/22 04:29:40;;;;;;;0.10;0.10;;;;;;;13.16;68.83;100447.06;5066770;28;20057;-73
2023/05/22 04:32:10;;;;;;;0.10;0.10;;;;;;;13.08;69.39;100453.13;5067698;28;20060;-71
2023/05/22 04:34:36;;;;;;;0.10;0.10;;;;;;;13.03;70.31;100445.72;5066535;28;20048;-72
2023/05/22 04:37:05;;;;;;;0.20;0.20;;;;;;;13.02;71.02;100447.63;5067666;28;20090;-72
2023/05/22 04:39:31;;;;;;;0.10;0.10;;;;;;;13.03;71.64;100446.53;5068397;28;20044;-72
2023/05/22 04:42:04;;;;;;;0.10;0.10;;;;;;;13.04;71.68;100448.19;5069402;28;20044;-73
2023/05/22 04:44:33;;;;;;;0.20;0.20;;;;;;;13.05;71.93;100446.25;5067838;28;20036;-72
2023/05/22 04:47:00;;;;;;;0.17;0.17;;;;;;;13.05;72.13;100449.84;5057974;28;20598;-72
2023/05/22 04:49:27;;;;;;;0.17;0.17;;;;;;;13.05;72.32;100447.09;5047631;28;20581;-72
2023/05/22 04:51:54;;;;;;;0.10;0.10;;;;;;;13.07;72.33;100444.06;5047472;28;20798;-72
2023/05/22 04:54:22;;;;;;;0.10;0.10;;;;;;;13.09;72.26;100454.75;5033350;28;20045;-72
2023/05/22 04:56:48;;;;;;;0.17;0.17;;;;;;;13.12;72.52;100454.22;5066973;28;20559;-73
2023/05/22 04:59:15;;;;;;;0.10;0.10;;;;;;;13.10;73.38;100459.97;5045750;28;20107;-72
2023/05/22 05:01:44;;;;;;;0.10;0.10;;;;;;;13.06;74.09;100453.38;5052915;28;20052;-73
2023/05/22 05:04:10;;;;;;;0.10;0.10;;;;;;;13.07;74.33;100456.97;5049864;28;20056;-72
2023/05/22 05:06:37;;;;;;;0.10;0.10;;;;;;;13.03;75.66;100459.44;5068383;28;20057;-73
2023/05/22 05:09:03;;;;;;;0.10;0.10;;;;;;;12.96;76.81;100464.38;5066945;28;20107;-73
2023/05/22 05:11:31;;;;;;;0.10;0.10;;;;;;;12.94;77.51;100463.81;5066464;28;20045;-72
2023/05/22 05:13:57;;;;;;;0.20;0.20;;;;;;;12.88;78.66;100477.53;5067342;28;20299;-73
2023/05/22 05:16:25;;;;;;;0.10;0.10;;;;;;;12.78;79.60;100477.53;5065399;28;20052;-72
2023/05/22 05:18:52;;;;;;;0.10;0.10;;;;;;;12.55;81.67;100476.97;5064389;28;20076;-73
2023/05/22 05:21:20;;;;;;;0.15;0.15;;;;;;;12.35;83.55;100466.78;5066656;28;20059;-73
2023/05/22 05:23:46;;;;;;;0.20;0.20;;;;;;;12.23;85.01;100458.78;5045920;28;20551;-72
2023/05/22 05:26:13;;;;;;;0.10;0.10;;;;;;;12.30;86.07;100467.56;5026504;28;20098;-73
2023/05/22 05:28:40;;;;;;;0.10;0.10;;;;;;;12.37;86.75;100478.28;5062406;28;20079;-72
2023/05/22 05:31:08;;;;;;;0.13;0.13;;;;;;;12.38;86.56;100476.38;5066590;28;20130;-72
2023/05/22 05:33:55;;;;;;;0.10;0.10;;;;;;;12.32;86.49;100473.59;5048022;28;20102;-72
2023/05/22 05:36:34;;;;;;;0.10;0.10;;;;;;;12.29;86.71;100474.16;5063206;28;20039;-72
2023/05/22 05:39:01;;;;;;;0.10;0.10;;;;;;;12.34;86.80;100473.34;5065445;28;20041;-72
2023/05/22 05:41:28;;;;;;;0.20;0.20;;;;;;;12.31;87.07;100480.19;5057337;28;20041;-72
2023/05/22 05:44:03;;;;;;;0.10;0.10;;;;;;;12.31;87.12;100477.44;5036409;28;20149;-71
2023/05/22 05:46:31;;;;;;;0.20;0.20;;;;;;;12.35;87.20;100475.00;5061571;28;20128;-71
2023/05/22 05:48:58;;;;;;;0.10;0.10;;;;;;;12.40;87.37;100477.75;5047500;28;20045;-71
2023/05/22 05:51:25;;;;;;;0.10;0.10;;;;;;;12.44;87.39;100481.59;5064278;28;20084;-71
2023/05/22 05:53:52;;;;;;;0.10;0.10;;;;;;;12.43;88.06;100493.69;4703717;28;10000613;-72
2023/05/22 05:56:20;;;;;;;0.10;0.10;;;;;;;12.41;88.46;100497.78;5035735;28;20049;-72
2023/05/22 05:58:47;;;;;;;0.20;0.20;;;;;;;12.36;89.12;100495.03;5035744;28;20490;-71
2023/05/22 06:01:34;;;;;;;0.10;0.10;;;;;;;12.37;89.54;100496.66;5060847;28;20040;-72
2023/05/22 06:04:02;;;;;;;0.20;0.20;;;;;;;12.39;89.82;100489.81;5060262;28;20055;-69
2023/05/22 06:06:35;;;;;;;0.17;0.17;;;;;;;12.36;89.56;100471.16;5057066;28;20127;-70
2023/05/22 06:09:10;;;;;;;0.10;0.10;;;;;;;12.56;89.83;100499.72;5060039;28;20063;-69
2023/05/22 06:12:03;;;;;;;0.10;0.10;;;;;;;12.64;89.40;100485.47;5058875;28;20144;-69
2023/05/22 06:14:29;;;;;;;0.10;0.10;;;;;;;12.75;89.61;100486.31;5056537;28;20079;-71
2023/05/22 06:16:57;;;;;;;0.10;0.10;;;;;;;12.84;89.74;100481.09;5034985;28;20143;-71
2023/05/22 06:19:23;;;;;;;0.20;0.20;;;;;;;12.94;89.94;100472.03;5036190;28;20480;-73
2023/05/22 06:21:50;;;;;;;0.10;0.10;;;;;;;13.01;90.11;100498.13;5066567;28;20052;-70
2023/05/22 06:24:16;;;;;;;0.10;0.10;;;;;;;13.02;90.37;100496.22;5041794;28;20053;-70
2023/05/22 06:26:42;;;;;;;0.10;0.10;;;;;;;12.98;90.25;100500.63;5049960;28;20052;-70
2023/05/22 06:29:09;;;;;;;0.10;0.10;;;;;;;12.96;90.35;100514.59;5049833;28;20630;-70
2023/05/22 06:31:37;;;;;;;;;;;;;;;12.89;90.29;100512.13;5066867;28;20063;-70
2023/05/22 06:34:05;;;;;;;0.10;0.10;;;;;;;12.87;90.82;100502.50;5066093;28;20509;-70
2023/05/22 06:36:33;;;;;;;0.20;0.20;;;;;;;12.86;90.99;100501.69;5054201;28;20047;-70
2023/05/22 06:39:00;;;;;;;0.20;0.20;;;;;;;12.85;91.47;100474.50;5016040;28;20056;-70
2023/05/22 06:41:56;;;;;;;0.10;0.10;;;;;;;12.83;91.88;100477.56;5066038;28;20086;-71
2023/05/22 06:44:24;;;;;;;0.13;0.13;;;;;;;12.84;92.39;100456.41;5068948;28;20093;-71
2023/05/22 06:46:54;;;;;;;0.20;0.20;;;;;;;13.04;93.01;100464.66;5064056;28;20137;-70
2023/05/22 06:49:25;;;;;;;0.20;0.20;;;;;;;13.22;92.89;100480.81;5053078;28;20143;-73
2023/05/22 06:51:54;;;;;;;0.20;0.20;;;;;;;13.36;92.87;100484.66;5064291;28;20492;-73
2023/05/22 06:54:21;;;;;;;0.15;0.15;;;;;;;13.34;92.72;100501.41;5052503;28;20494;-71
2023/05/22 06:56:50;;;;;;;0.20;0.20;;;;;;;13.31;92.06;100495.66;5027318;28;20518;-70
2023/05/22 06:59:19;;;;;;;0.10;0.10;;;;;;;13.33;91.73;100477.78;5059137;28;20059;-70
2023/05/22 07:02:04;;;;;;;0.20;0.20;;;;;;;13.49;92.07;100452.25;5080499;28;20045;-70
2023/05/22 07:04:58;;;;;;;0.20;0.20;;;;;;;13.83;92.31;100455.19;5053711;28;20048;-70
2023/05/22 07:07:32;;;;;;;0.20;0.20;;;;;;;14.01;92.08;100466.66;5050009;28;20458;-70
2023/05/22 07:09:58;;;;;;;0.20;0.20;;;;;;;14.22;92.18;100458.28;5057550;28;20084;-70
2023/05/22 07:12:26;;;;;;;0.20;0.20;;;;;;;14.56;91.96;100454.78;5059290;28;20484;-70
2023/05/22 07:14:53;;;;;;;0.20;0.20;;;;;;;14.91;90.26;100454.84;5044761;28;20138;-70
2023/05/22 07:17:22;;;;;;;0.20;0.20;;;;;;;15.16;88.99;100453.78;5047964;28;20044;-70
2023/05/22 07:19:49;;;;;;;;;;;;;;;15.36;nan;100460.19;5048299;28;20074;-70
2023/05/22 07:22:17;;;;;;;0.20;0.20;;;;;;;15.51;87.25;100462.81;5063199;28;19924;-70
2023/05/22 07:24:46;;;;;;;0.30;0.30;;;;;;;15.63;86.50;100456.91;5062920;28;20052;-70
2023/05/22 07:27:12;;;;;;;0.20;0.20;;;;;;;15.78;85.73;100471.63;5045448;28;20044;-70
2023/05/22 07:29:39;;;;;;;0.30;0.30;;;;;;;15.84;84.54;100479.53;5052817;28;20162;-70
2023/05/22 07:32:07;;;;;;;0.20;0.20;;;;;;;15.87;83.65;100494.66;5057271;28;20145;-69
2023/05/22 07:34:34;;;;;;;0.20;0.20;;;;;;;15.81;83.28;100487.56;5060396;28;20044;-70
2023/05/22 07:37:07;;;;;;;0.30;0.30;;;;;;;15.93;82.62;100479.75;5062249;28;20049;-70
2023/05/22 07:39:35;;;;;;;0.25;0.25;;;;;;;16.21;82.24;100479.94;5060160;28;20058;-70
2023/05/22 07:42:03;;;;;;;0.20;0.20;;;;;;;16.54;81.61;100466.22;5065562;28;20538;-70
2023/05/22 07:44:33;;;;;;;0.30;0.30;;;;;;;16.96;80.63;100465.56;5063790;28;20044;-70
2023/05/22 07:46:59;;;;;;;;;;;;;;;17.28;79.24;100475.84;5079517;28;21105;-70
2023/05/22 07:49:27;;;;;;;0.30;0.30;;;;;;;17.51;77.18;100464.09;5051718;28;20237;-72
2023/05/22 07:51:53;;;;;;;0.30;0.30;;;;;;;17.57;76.49;100474.75;5081878;28;20524;-70
2023/05/22 07:54:22;;;;;;;0.30;0.30;;;;;;;17.55;76.15;100481.72;5068719;28;20377;-70
2023/05/22 07:56:54;;;;;;;0.30;0.30;;;;;;;17.56;75.95;100473.13;5071595;28;20072;-70
2023/05/22 07:59:24;;;;;;;0.30;0.30;;;;;;;17.71;74.12;100463.69;5070434;28;20546;-70
2023/05/22 08:01:51;;;;;;;0.30;0.30;;;;;;;17.71;73.78;100473.91;5049118;28;20286;-72
2023/05/22 08:04:17;;;;;;;0.30;0.30;;;;;;;17.46;73.43;100478.00;5049069;28;20495;-70
2023/05/22 08:06:43;;;;;;;0.30;0.30;;;;;;;17.36;74.55;100484.53;5069736;28;20050;-70
2023/05/22 08:09:09;;;;;;;0.30;0.30;;;;;;;17.28;74.16;100461.19;5049116;28;20106;-71
2023/05/22 08:11:38;;;;;;;0.30;0.30;;;;;;;17.49;74.39;100469.94;5072488;28;20070;-70
2023/05/22 08:14:06;;;;;;;0.30;0.30;;;;;;;17.64;73.64;100477.13;5051978;28;20155;-70
2023/05/22 08:16:33;;;;;;;0.35;0.35;;;;;;;17.64;73.28;100474.34;5064984;28;20560;-70
2023/05/22 08:18:59;;;;;;;0.30;0.30;;;;;;;17.79;72.88;100477.91;5047152;28;20060;-70
2023/05/22 08:21:26;;;;;;;0.40;0.40;;;;;;;17.96;71.94;100475.38;5032773;28;20048;-71
2023/05/22 08:23:52;;;;;;;0.32;0.32;;;;;;;18.14;70.92;100481.13;5061544;28;20055;-70
2023/05/22 08:26:19;;;;;;;0.30;0.30;;;;;;;18.20;70.61;100487.38;5088662;28;20055;-70
2023/05/22 08:28:45;;;;;;;0.30;0.30;;;;;;;18.30;69.91;100475.25;5088893;28;20186;-70
2023/05/22 08:31:13;;;;;;;0.40;0.40;;;;;;;18.40;70.09;100458.41;5050292;28;20314;-70
2023/05/22 08:33:40;;;;;;;0.30;0.30;;;;;;;18.35;69.30;100459.38;5084867;28;20044;-70
2023/05/22 08:36:06;;;;;;;0.40;0.40;;;;;;;18.27;69.52;100480.28;5087498;28;20060;-70
2023/05/22 08:38:32;;;;;;;0.30;0.30;;;;;;;18.37;69.01;100478.41;5069644;28;20051;-72
2023/05/22 08:40:59;;;;;;;0.30;0.30;;;;;;;18.34;68.45;100462.44;5086445;28;20048;-72
2023/05/22 08:43:27;;;;;;;0.40;0.40;;;;;;;18.35;68.23;100477.91;5087728;28;20051;-72
2023/05/22 08:45:58;;;;;;;0.40;0.40;;;;;;;18.42;68.48;100472.78;5065938;28;20058;-72
2023/05/22 08:48:29;;;;;;;0.40;0.40;;;;;;;18.66;67.65;100469.72;5084599;28;20063;-72
2023/05/22 08:50:57;;;;;;;0.40;0.40;;;;;;;18.83;66.80;100455.16;5088755;28;20079;-72
2023/05/22 08:53:27;;;;;;;0.50;0.50;;;;;;;19.04;65.92;100459.41;5085245;28;20044;-72
2023/05/22 08:55:53;;;;;;;0.40;0.40;;;;;;;19.46;64.52;100445.28;5058645;28;20048;-71
2023/05/22 08:58:20;;;;;;;0.50;0.50;;;;;;;19.83;63.40;100441.19;5046186;28;20070;-71
2023/05/22 09:00:47;;;;;;;0.50;0.50;;;;;;;20.33;62.04;100443.94;5065976;28;20057;-72
2023/05/22 09:03:14;;;;;;;0.50;0.50;;;;;;;20.68;60.75;100441.16;5068534;28;20139;-72
2023/05/22 09:05:44;;;;;;;0.50;0.50;;;;;;;21.06;59.65;100443.22;5032759;28;20044;-72
2023/05/22 09:08:10;;;;;;;0.50;0.50;;;;;;;21.22;58.84;100449.09;5049637;28;20453;-72
2023/05/22 09:10:36;;;;;;;0.60;0.60;;;;;;;21.55;57.95;100442.09;5068847;28;20116;-72
2023/05/22 09:13:04;;;;;;;0.60;0.60;;;;;;;21.99;56.73;100444.69;5084381;28;20052;-72
2023/05/22 09:15:31;;;;;;;0.50;0.50;;;;;;;22.13;55.35;100438.84;5081586;28;20526;-72
2023/05/22 09:17:57;;;;;;;0.50;0.50;;;;;;;21.95;56.10;100449.31;5062931;28;20074;-72
2023/05/22 09:20:24;;;;;;;0.50;0.50;;;;;;;21.74;56.21;100441.69;5082065;28;20052;-72
2023/05/22 09:22:52;;;;;;;0.50;0.50;;;;;;;21.63;55.44;100438.47;5068315;28;20306;-72
2023/05/22 09:25:19;;;;;;;0.50;0.50;;;;;;;21.49;55.70;100444.25;5066389;28;20443;-72
2023/05/22 09:27:47;;;;;;;0.50;0.50;;;;;;;21.76;55.36;100444.97;5059941;28;20061;-72
2023/05/22 09:30:16;;;;;;;0.50;0.50;;;;;;;21.96;54.95;100442.59;5079076;28;20535;-72
2023/05/22 09:32:42;;;;;;;0.50;0.50;;;;;;;21.95;54.97;100444.53;5067857;28;20106;-72
2023/05/22 09:35:09;;;;;;;0.50;0.50;;;;;;;22.03;54.65;100445.63;5066777;28;20096;-72
2023/05/22 09:37:35;;;;;;;0.50;0.50;;;;;;;22.18;53.98;100444.25;5073819;28;20444;-71
2023/05/22 09:40:05;;;;;;;0.75;0.50;;;;;;;22.19;53.75;100442.25;5067763;28;20044;-72
2023/05/22 09:42:33;;;;;;;0.50;0.50;;;;;;;22.10;54.12;100443.16;5079019;28;20040;-72
2023/05/22 09:45:04;;;;;;;0.40;0.40;;;;;;;21.98;53.60;100445.00;5038497;28;20147;-72
2023/05/22 09:47:33;;;;;;;0.50;0.50;;;;;;;21.86;53.84;100451.31;5067117;28;20378;-72
2023/05/22 09:50:00;;;;;;;0.40;0.40;;;;;;;21.61;53.93;100451.88;5077572;28;20605;-72
2023/05/22 09:52:27;;;;;;;;;;;;;;;21.34;54.71;100442.03;5058771;28;20051;-72
2023/05/22 09:54:54;;;;;;;;;;;;;;;21.19;55.32;100448.94;5061604;28;19974;-72
2023/05/22 09:57:24;;;;;;;0.40;0.40;;;;;;;21.15;54.84;100445.19;5066883;28;20457;-72
2023/05/22 09:59:57;;;;;;;0.55;0.55;;;;;;;21.34;55.03;100444.81;5051146;28;20139;-72
2023/05/22 10:02:24;;;;;;;0.60;0.60;;;;;;;21.58;53.67;100440.59;5041350;28;20040;-72
2023/05/22 10:04:53;;;;;;;0.50;0.50;;;;;;;21.77;53.02;100431.88;5070959;28;20045;-71
2023/05/22 10:07:22;;;;;;;0.50;0.50;;;;;;;21.79;52.76;100435.97;5055094;28;20603;-71
2023/05/22 10:09:58;;;;;;;0.40;0.40;;;;;;;21.60;53.06;100419.66;5072814;28;20427;-71
2023/05/22 10:12:31;;;;;;;0.50;0.50;;;;;;;21.59;53.24;100429.16;5070349;28;20067;-70
2023/05/22 10:14:58;;;;;;;0.40;0.40;;;;;;;21.50;53.44;100423.63;5057040;28;20148;-71
2023/05/22 10:17:25;;;;;;;0.40;0.40;;;;;;;21.52;53.78;100428.84;5076310;28;20044;-71
2023/05/22 10:19:53;;;;;;;0.40;0.40;;;;;;;21.31;54.77;100431.53;5076131;28;20105;-70
2023/05/22 10:22:21;;;;;;;0.40;0.40;;;;;;;21.13;54.94;100422.47;5073036;28;20052;-69
2023/05/22 10:24:48;;;;;;;0.40;0.40;;;;;;;21.04;55.90;100422.50;5058956;28;20154;-71
2023/05/22 10:27:14;;;;;;;;;;;;;;;21.13;55.77;100425.25;5070914;28;20040;-71
2023/05/22 10:29:50;;;;;;;0.40;0.40;;;;;;;21.10;56.10;100416.41;5041035;28;20597;-71
2023/05/22 10:32:23;;;;;;;0.30;0.30;;;;;;;20.92;55.95;100415.63;5053350;28;20044;-71
2023/05/22 10:35:04;;;;;;;0.40;0.40;;;;;;;20.99;55.53;100420.69;5051387;28;20046;-71
2023/05/22 10:37:46;;;;;;;0.50;0.50;;;;;;;21.23;54.98;100414.56;5066875;28;20048;-71
2023/05/22 10:40:16;;;;;;;0.50;0.50;;;;;;;21.44;54.37;100413.81;5050982;28;20043;-73
2023/05/22 10:42:43;;;;;;;0.50;0.50;;;;;;;21.66;53.54;100421.13;5043392;28;20135;-73
2023/05/22 10:45:11;;;;;;;0.50;0.50;;;;;;;21.83;53.23;100421.38;5053991;28;20044;-73
2023/05/22 10:47:37;;;;;;;0.60;0.60;;;;;;;22.30;52.73;100423.16;5053143;28;20606;-72
2023/05/22 10:50:06;;;;;;;0.50;0.50;;;;;;;22.71;51.26;100417.94;5057164;28;20051;-71
2023/05/22 10:52:33;;;;;;;0.60;0.60;;;;;;;23.11;49.97;100416.56;5062025;28;20063;-73
2023/05/22 10:55:00;;;;;;;0.60;0.60;;;;;;;23.48;49.11;100405.47;5049843;28;20138;-73
2023/05/22 10:57:32;;;;;;;0.50;0.50;;;;;;;23.92;48.48;100413.22;5079184;28;20047;-71
2023/05/22 11:00:13;;;;;;;0.60;0.60;;;;;;;24.18;47.51;100410.06;5082628;28;20048;-71
2023/05/22 11:02:42;;;;;;;0.60;0.60;;;;;;;24.68;46.59;100404.31;5072028;28;20067;-71
2023/05/22 11:05:35;;;;;;;0.70;0.70;;;;;;;24.92;45.92;100410.97;5063912;28;20078;-73
2023/05/22 11:08:35;;;;;;;0.70;0.70;;;;;;;25.25;45.33;100409.81;5060546;28;20040;-73
2023/05/22 11:11:10;;;;;;;0.60;0.60;;;;;;;25.24;45.01;100408.19;5069569;28;20049;-71
2023/05/22 11:13:37;;;;;;;0.70;0.70;;;;;;;25.16;45.14;100396.00;5047024;28;20106;-71
2023/05/22 11:16:07;;;;;;;0.70;0.70;;;;;;;25.43;44.63;100399.09;5076725;28;20117;-72
2023/05/22 11:18:33;;;;;;;0.60;0.60;;;;;;;25.69;44.16;100394.94;5075364;28;20048;-71
2023/05/22 11:21:00;;;;;;;0.70;0.70;;;;;;;25.49;44.73;100392.06;5058876;28;20055;-71
2023/05/22 11:23:26;;;;;;;0.60;0.60;;;;;;;25.44;44.66;100395.09;5051778;28;20066;-71
2023/05/22 11:25:53;;;;;;;0.80;0.80;;;;;;;25.82;43.66;100397.59;5073127;28;20052;-71
2023/05/22 11:28:19;;;;;;;0.60;0.60;;;;;;;26.31;43.26;100388.72;5050935;28;20453;-71
2023/05/22 11:30:46;;;;;;;0.90;0.90;;;;;;;26.52;42.15;100387.53;5070126;28;20314;-71
2023/05/22 11:33:14;;;;;;;1.10;1.10;;;;;;;27.16;40.97;100391.91;5074050;28;20040;-71
2023/05/22 11:35:43;;;;;;;1.10;1.10;;;;;;;27.96;39.41;100379.94;5075764;28;20072;-71